createdAt,value
2023-04-02T00:00:12.224Z,15.90
2023-04-02T00:02:50.988Z,17.70
2023-04-02T00:05:31.582Z,20.00
2023-04-02T00:08:18.218Z,19.00
2023-04-02T00:10:48.144Z,12.90
2023-04-02T00:13:23.086Z,14.70
2023-04-02T00:15:51.057Z,13.20
2023-04-02T00:18:19.643Z,13.60
2023-04-02T00:20:51.304Z,16.80
2023-04-02T00:23:18.012Z,17.90
2023-04-02T00:25:47.392Z,16.30
2023-04-02T00:28:16.439Z,14.60
2023-04-02T00:30:53.902Z,13.60
2023-04-02T00:33:27.003Z,10.50
2023-04-02T00:35:54.659Z,11.10
2023-04-02T00:38:31.839Z,11.70
2023-04-02T00:41:01.828Z,10.30
2023-04-02T00:43:31.105Z,15.50
2023-04-02T00:48:31.818Z,11.90
2023-04-02T00:51:07.882Z,12.60
2023-04-02T00:53:34.977Z,11.00
2023-04-02T00:56:02.351Z,9.10
2023-04-02T00:58:34.095Z,7.60
2023-04-02T01:01:19.256Z,10.00
2023-04-02T01:03:58.496Z,11.60
2023-04-02T01:06:29.734Z,10.20
2023-04-02T01:09:19.739Z,12.60
2023-04-02T01:12:10.549Z,13.80
2023-04-02T01:15:04.122Z,13.90
2023-04-02T01:17:54.729Z,12.60
2023-04-02T01:20:55.458Z,10.80
2023-04-02T01:23:48.118Z,8.10
2023-04-02T01:26:27.448Z,9.40
2023-04-02T01:29:00.527Z,11.70
2023-04-02T01:31:27.798Z,8.80
2023-04-02T01:33:54.814Z,9.40
2023-04-02T01:36:28.184Z,8.30
2023-04-02T01:39:03.245Z,9.90
2023-04-02T01:41:40.862Z,10.90
2023-04-02T01:46:40.417Z,7.50
2023-04-02T01:49:21.580Z,9.10
2023-04-02T01:51:56.470Z,8.40
2023-04-02T01:54:24.567Z,11.90
2023-04-02T01:56:51.784Z,11.00
2023-04-02T01:59:22.247Z,13.60
2023-04-02T02:01:54.546Z,10.40
2023-04-02T02:04:21.938Z,11.00
2023-04-02T02:06:49.738Z,12.70
2023-04-02T02:09:26.250Z,12.20
2023-04-02T02:11:53.002Z,8.90
2023-04-02T02:14:27.331Z,8.30
2023-04-02T02:17:02.009Z,8.80
2023-04-02T02:20:00.471Z,12.30
2023-04-02T02:22:37.193Z,12.40
2023-04-02T02:25:11.191Z,14.90
2023-04-02T02:28:08.437Z,12.30
2023-04-02T02:30:38.706Z,12.10
2023-04-02T02:33:26.242Z,14.50
2023-04-02T02:36:08.741Z,10.60
2023-04-02T02:38:48.979Z,11.20
2023-04-02T02:41:42.046Z,11.90
2023-04-02T02:44:09.130Z,15.10
2023-04-02T02:46:43.634Z,17.20
2023-04-02T02:49:19.670Z,11.70
2023-04-02T02:51:54.019Z,14.40
2023-04-02T02:54:26.216Z,10.80
2023-04-02T02:56:57.210Z,13.80
2023-04-02T02:59:24.657Z,13.00
2023-04-02T03:01:51.949Z,9.80
2023-04-02T03:04:22.797Z,9.30
2023-04-02T03:06:53.291Z,11.80
2023-04-02T03:09:52.471Z,9.30
2023-04-02T03:12:35.222Z,10.60
2023-04-02T03:15:27.457Z,11.50
2023-04-02T03:18:01.961Z,10.90
2023-04-02T03:20:48.164Z,11.40
2023-04-02T03:23:32.724Z,10.60
2023-04-02T03:26:13.569Z,9.70
2023-04-02T03:28:42.923Z,10.20
2023-04-02T03:31:18.088Z,8.50
2023-04-02T03:33:48.351Z,9.40
2023-04-02T03:36:30.914Z,10.90
2023-04-02T03:39:10.572Z,9.70
2023-04-02T03:41:39.716Z,11.80
2023-04-02T03:44:36.517Z,10.50
2023-04-02T03:47:30.990Z,10.60
2023-04-02T03:50:08.068Z,8.30
2023-04-02T03:52:37.125Z,9.90
2023-04-02T03:55:22.086Z,9.30
2023-04-02T03:57:59.110Z,9.80
2023-04-02T04:00:33.654Z,10.30
2023-04-02T04:03:25.090Z,11.10
2023-04-02T04:06:00.833Z,12.10
2023-04-02T04:08:57.198Z,11.70
2023-04-02T04:11:27.570Z,9.90
2023-04-02T04:14:10.654Z,9.70
2023-04-02T04:16:53.743Z,7.30
2023-04-02T04:19:30.010Z,8.80
2023-04-02T04:22:17.937Z,11.50
2023-04-02T04:24:47.113Z,9.90
2023-04-02T04:27:36.155Z,9.80
2023-04-02T04:30:27.481Z,8.90
2023-04-02T04:33:05.675Z,11.00
2023-04-02T04:35:54.630Z,11.20
2023-04-02T04:38:49.346Z,10.40
2023-04-02T04:41:17.690Z,7.30
2023-04-02T04:44:14.702Z,7.80
2023-04-02T04:46:46.161Z,8.10
2023-04-02T04:49:31.459Z,8.90
2023-04-02T04:52:12.719Z,9.90
2023-04-02T04:54:39.631Z,10.90
2023-04-02T04:57:07.327Z,10.60
2023-04-02T04:59:42.378Z,10.80
2023-04-02T05:02:13.159Z,8.00
2023-04-02T05:04:41.898Z,6.60
2023-04-02T05:07:16.724Z,8.50
2023-04-02T05:10:09.612Z,6.70
2023-04-02T05:13:08.119Z,8.40
2023-04-02T05:15:36.394Z,9.50
2023-04-02T05:18:18.962Z,7.30
2023-04-02T05:20:55.896Z,7.30
2023-04-02T05:23:31.721Z,8.30
2023-04-02T05:26:06.429Z,6.10
2023-04-02T05:28:54.498Z,6.40
2023-04-02T05:31:43.875Z,7.50
2023-04-02T05:34:11.896Z,8.80
2023-04-02T05:36:46.646Z,6.50
2023-04-02T05:39:16.781Z,8.70
2023-04-02T05:41:48.324Z,7.60
2023-04-02T05:44:31.592Z,7.20
2023-04-02T05:47:14.639Z,5.30
2023-04-02T05:49:49.380Z,5.60
2023-04-02T05:52:23.380Z,6.50
2023-04-02T05:54:59.504Z,8.00
2023-04-02T05:57:44.565Z,7.00
2023-04-02T06:00:39.630Z,6.90
2023-04-02T06:03:28.959Z,6.00
2023-04-02T06:05:59.610Z,7.40
2023-04-02T06:08:52.886Z,7.40
2023-04-02T06:11:27.630Z,6.50
2023-04-02T06:13:54.882Z,5.70
2023-04-02T06:16:26.824Z,7.20
2023-04-02T06:19:00.859Z,7.10
2023-04-02T06:21:27.763Z,6.90
2023-04-02T06:24:04.583Z,8.10
2023-04-02T06:26:38.483Z,7.60
2023-04-02T06:29:07.180Z,6.20
2023-04-02T06:31:38.385Z,5.60
2023-04-02T06:34:11.736Z,5.50
2023-04-02T06:36:40.060Z,7.10
2023-04-02T06:39:14.481Z,5.50
2023-04-02T06:41:41.568Z,6.50
2023-04-02T06:44:30.107Z,6.20
2023-04-02T06:47:31.664Z,7.20
2023-04-02T06:50:23.415Z,5.70
2023-04-02T06:52:56.581Z,5.00
2023-04-02T06:55:27.928Z,4.50
2023-04-02T06:57:55.029Z,4.30
2023-04-02T07:00:36.327Z,5.10
2023-04-02T07:03:07.393Z,5.60
2023-04-02T07:05:35.215Z,6.30
2023-04-02T07:08:05.074Z,4.80
2023-04-02T07:18:05.051Z,5.20
2023-04-02T07:23:06.549Z,5.20
2023-04-02T07:25:33.957Z,6.40
2023-04-02T07:28:01.619Z,5.50
2023-04-02T07:30:28.376Z,5.40
2023-04-02T07:32:56.791Z,5.20
2023-04-02T07:35:24.084Z,4.70
2023-04-02T07:37:55.661Z,5.60
2023-04-02T07:40:24.287Z,4.90
2023-04-02T07:42:51.649Z,5.80
2023-04-02T07:45:18.545Z,5.70
2023-04-02T07:47:45.425Z,5.90
2023-04-02T07:50:12.491Z,4.60
2023-04-02T08:00:21.471Z,4.30
2023-04-02T08:02:48.871Z,4.30
2023-04-02T08:05:15.927Z,5.30
2023-04-02T08:07:43.665Z,6.40
2023-04-02T08:10:11.507Z,5.10
2023-04-02T08:12:42.875Z,5.30
2023-04-02T08:15:14.386Z,5.60
2023-04-02T08:17:41.540Z,5.50
2023-04-02T08:20:14.397Z,3.00
2023-04-02T08:22:41.632Z,3.70
2023-04-02T08:25:10.065Z,8.30
2023-04-02T08:27:37.302Z,8.00
2023-04-02T08:30:05.088Z,5.80
2023-04-02T08:32:33.995Z,4.20
2023-04-02T08:35:00.851Z,5.00
2023-04-02T08:37:28.484Z,4.10
2023-04-02T08:39:55.522Z,5.30
2023-04-02T08:42:28.402Z,3.70
2023-04-02T08:45:25.029Z,5.00
2023-04-02T08:48:06.540Z,4.80
2023-04-02T08:50:35.935Z,6.10
2023-04-02T08:53:26.087Z,7.30
2023-04-02T08:56:08.830Z,6.60
2023-04-02T08:58:59.636Z,6.80
2023-04-02T09:01:41.612Z,7.10
2023-04-02T09:04:20.172Z,4.80
2023-04-02T09:06:47.610Z,29.10
2023-04-02T09:09:15.694Z,17.80
2023-04-02T09:11:54.963Z,13.50
2023-04-02T09:15:09.224Z,8.60
2023-04-02T09:17:50.484Z,6.40
2023-04-02T09:20:26.441Z,6.60
2023-04-02T09:22:53.752Z,6.40
2023-04-02T09:25:22.944Z,7.20
2023-04-02T09:27:54.486Z,6.50
2023-04-02T09:30:59.451Z,4.00
2023-04-02T09:33:49.582Z,8.60
2023-04-02T09:36:22.049Z,5.10
2023-04-02T09:39:23.156Z,7.10
2023-04-02T09:42:02.895Z,4.50
2023-04-02T09:44:32.834Z,5.40
2023-04-02T09:47:04.572Z,5.50
2023-04-02T09:49:36.966Z,5.70
2023-04-02T09:52:21.058Z,4.90
2023-04-02T09:55:08.692Z,5.60
2023-04-02T09:57:38.269Z,4.40
2023-04-02T10:00:12.363Z,5.60
2023-04-02T10:03:01.100Z,6.00
2023-04-02T10:05:40.009Z,9.20
2023-04-02T10:08:26.389Z,9.60
2023-04-02T10:10:56.918Z,10.50
2023-04-02T10:13:38.362Z,13.00
2023-04-02T10:16:16.450Z,7.80
2023-04-02T10:18:53.089Z,6.10
2023-04-02T10:21:37.515Z,7.10
2023-04-02T10:24:14.838Z,7.90
2023-04-02T10:26:56.766Z,7.40
2023-04-02T10:29:49.364Z,6.00
2023-04-02T10:32:36.876Z,8.60
2023-04-02T10:35:05.125Z,7.20
2023-04-02T10:37:45.112Z,6.30
2023-04-02T10:40:27.070Z,4.30
2023-04-02T10:43:25.154Z,8.00
2023-04-02T10:46:12.063Z,11.60
2023-04-02T10:48:45.709Z,18.60
2023-04-02T10:51:32.217Z,18.90
2023-04-02T10:54:08.261Z,20.00
2023-04-02T10:56:44.459Z,42.40
2023-04-02T10:59:19.938Z,20.40
2023-04-02T11:01:46.965Z,14.80
2023-04-02T11:04:20.369Z,27.40
2023-04-02T11:07:13.130Z,33.20
2023-04-02T11:09:42.800Z,13.50
2023-04-02T11:12:17.860Z,9.60
2023-04-02T11:14:53.858Z,7.40
2023-04-02T11:17:21.378Z,10.80
2023-04-02T11:19:48.328Z,9.20
2023-04-02T11:30:16.163Z,8.60
2023-04-02T11:32:51.617Z,9.30
2023-04-02T11:35:30.803Z,10.70
2023-04-02T11:38:21.252Z,11.80
2023-04-02T11:40:51.608Z,12.60
2023-04-02T11:43:34.105Z,15.10
2023-04-02T11:46:04.271Z,13.50
2023-04-02T11:48:36.422Z,13.80
2023-04-02T11:51:22.651Z,12.30
2023-04-02T11:53:54.991Z,8.90
2023-04-02T11:56:43.791Z,6.70
2023-04-02T11:59:25.817Z,10.80
2023-04-02T12:04:56.636Z,10.50
2023-04-02T12:07:52.277Z,8.60
2023-04-02T12:10:24.025Z,10.20
2023-04-02T12:12:57.714Z,10.40
2023-04-02T12:15:36.887Z,12.60
2023-04-02T12:18:13.222Z,8.60
2023-04-02T12:20:42.820Z,9.10
2023-04-02T12:23:21.440Z,10.90
2023-04-02T12:25:56.995Z,11.90
2023-04-02T12:28:23.996Z,9.30
2023-04-02T12:30:52.017Z,10.90
2023-04-02T12:33:19.483Z,10.00
2023-04-02T12:35:47.431Z,9.60
2023-04-02T12:38:24.087Z,9.80
2023-04-02T12:40:56.181Z,6.10
2023-04-02T12:43:58.940Z,6.30
2023-04-02T12:46:27.023Z,6.60
2023-04-02T12:48:54.771Z,7.20
2023-04-02T12:51:21.917Z,8.40
2023-04-02T12:53:52.451Z,10.20
2023-04-02T12:56:21.765Z,13.70
2023-04-02T12:58:59.380Z,13.70
2023-04-02T13:01:28.422Z,25.70
2023-04-02T13:04:15.027Z,13.40
2023-04-02T13:06:48.692Z,12.60
2023-04-02T13:09:28.875Z,21.00
2023-04-02T13:11:58.801Z,35.30
2023-04-02T13:14:25.616Z,36.80
2023-04-02T13:16:53.023Z,35.20
2023-04-02T13:19:28.651Z,24.90
2023-04-02T13:21:56.499Z,24.20
2023-04-02T13:24:27.777Z,20.40
2023-04-02T13:26:56.979Z,14.40
2023-04-02T13:29:28.990Z,13.10
2023-04-02T13:32:00.893Z,15.30
2023-04-02T13:34:28.122Z,16.20
2023-04-02T13:36:57.398Z,16.50
2023-04-02T13:39:24.994Z,19.30
2023-04-02T13:41:59.535Z,20.40
2023-04-02T13:44:28.101Z,26.10
2023-04-02T13:46:55.254Z,22.90
2023-04-02T13:49:22.920Z,17.70
2023-04-02T13:51:52.832Z,15.50
2023-04-02T13:54:25.852Z,18.30
2023-04-02T13:56:53.440Z,17.90
2023-04-02T13:59:20.372Z,20.60
2023-04-02T14:01:48.141Z,21.60
2023-04-02T14:04:23.729Z,26.20
2023-04-02T14:09:44.952Z,23.00
2023-04-02T14:12:28.693Z,21.50
2023-04-02T14:15:04.948Z,20.30
2023-04-02T14:18:14.202Z,22.50
2023-04-02T14:20:51.642Z,24.40
2023-04-02T14:23:58.349Z,28.70
2023-04-02T14:26:50.513Z,25.90
2023-04-02T14:29:35.120Z,25.50
2023-04-02T14:32:04.943Z,28.00
2023-04-02T14:34:46.728Z,21.30
2023-04-02T14:37:30.494Z,17.50
2023-04-02T14:40:11.485Z,22.60
2023-04-02T14:42:44.236Z,24.30
2023-04-02T14:45:34.886Z,24.10
2023-04-02T14:48:14.403Z,22.80
2023-04-02T14:50:41.911Z,22.90
2023-04-02T15:01:19.874Z,18.90
2023-04-02T15:04:05.198Z,14.50
2023-04-02T15:06:41.212Z,19.00
2023-04-02T15:09:20.083Z,20.20
2023-04-02T15:11:55.667Z,23.60
2023-04-02T15:14:45.779Z,27.60
2023-04-02T15:17:12.205Z,25.30
2023-04-02T15:19:38.448Z,20.60
2023-04-02T15:22:27.347Z,17.20
2023-04-02T15:24:57.936Z,18.60
2023-04-02T15:27:55.678Z,16.30
2023-04-02T15:30:37.221Z,13.20
2023-04-02T15:33:26.275Z,13.70
2023-04-02T15:36:01.498Z,16.50
2023-04-02T15:38:40.953Z,18.00
2023-04-02T15:41:26.915Z,15.30
2023-04-02T15:44:02.639Z,15.40
2023-04-02T15:46:41.376Z,16.10
2023-04-02T15:49:42.395Z,16.10
2023-04-02T15:52:10.411Z,13.60
2023-04-02T15:54:47.385Z,10.60
2023-04-02T15:57:33.745Z,13.80
2023-04-02T16:02:55.083Z,11.50
2023-04-02T16:05:33.144Z,13.70
2023-04-02T16:08:26.469Z,13.60
2023-04-02T16:10:53.688Z,12.50
2023-04-02T16:13:39.158Z,13.50
2023-04-02T16:16:15.301Z,10.20
2023-04-02T16:19:01.963Z,12.20
2023-04-02T16:21:33.236Z,9.30
2023-04-02T16:24:10.897Z,9.20
2023-04-02T16:26:51.957Z,9.80
2023-04-02T16:29:26.267Z,11.20
2023-04-02T16:31:59.708Z,14.00
2023-04-02T16:34:38.009Z,13.30
2023-04-02T16:37:38.496Z,12.30
2023-04-02T16:40:36.748Z,14.00
2023-04-02T16:43:09.086Z,12.90
2023-04-02T16:45:59.760Z,10.90
2023-04-02T16:48:52.412Z,10.80
2023-04-02T16:51:41.280Z,14.80
2023-04-02T16:54:12.026Z,14.70
2023-04-02T16:57:00.892Z,13.70
2023-04-02T16:59:53.600Z,15.50
2023-04-02T17:02:24.734Z,14.50
2023-04-02T17:05:19.771Z,15.50
2023-04-02T17:07:54.890Z,17.10
2023-04-02T17:10:45.916Z,17.50
2023-04-02T17:13:25.246Z,10.00
2023-04-02T17:16:17.362Z,14.80
2023-04-02T17:18:44.033Z,19.10
2023-04-02T17:21:13.513Z,21.40
2023-04-02T17:23:55.914Z,21.80
2023-04-02T17:26:26.371Z,23.20
2023-04-02T17:28:52.799Z,25.70
2023-04-02T17:31:21.761Z,23.30
2023-04-02T17:33:48.505Z,21.60
2023-04-02T17:36:56.707Z,19.60
2023-04-02T17:39:34.967Z,17.90
2023-04-02T17:42:03.657Z,19.20
2023-04-02T17:44:33.114Z,21.90
2023-04-02T17:47:18.278Z,20.00
2023-04-02T17:50:18.382Z,18.60
2023-04-02T17:53:06.209Z,20.30
2023-04-02T17:55:40.057Z,19.70
2023-04-02T17:58:20.340Z,15.70
2023-04-02T18:01:26.950Z,15.80
2023-04-02T18:04:15.336Z,21.00
2023-04-02T18:07:03.429Z,30.20
2023-04-02T18:09:51.603Z,23.10
2023-04-02T18:12:39.415Z,18.30
2023-04-02T18:15:23.884Z,16.80
2023-04-02T18:18:01.913Z,19.20
2023-04-02T18:20:31.845Z,20.70
2023-04-02T18:23:49.681Z,17.90
2023-04-02T18:26:34.542Z,15.60
2023-04-02T18:29:42.657Z,17.20
2023-04-02T18:32:24.493Z,17.00
2023-04-02T18:37:38.547Z,19.00
2023-04-02T18:40:16.559Z,20.00
2023-04-02T18:43:05.338Z,19.00
2023-04-02T18:45:56.311Z,20.10
2023-04-02T18:48:57.884Z,14.50
2023-04-02T18:51:26.546Z,13.50
2023-04-02T18:54:10.767Z,16.30
2023-04-02T18:56:37.797Z,20.70
2023-04-02T18:59:29.761Z,18.80
2023-04-02T19:01:56.100Z,23.20
2023-04-02T19:04:25.842Z,21.30
2023-04-02T19:07:03.995Z,22.10
2023-04-02T19:09:33.508Z,21.10
2023-04-02T19:12:00.744Z,18.40
2023-04-02T19:14:29.527Z,15.90
2023-04-02T19:17:21.847Z,20.20
2023-04-02T19:20:10.912Z,18.20
2023-04-02T19:22:55.675Z,19.00
2023-04-02T19:25:41.164Z,19.00
2023-04-02T19:28:14.562Z,18.70
2023-04-02T19:30:43.046Z,20.50
2023-04-02T19:33:28.302Z,20.80
2023-04-02T19:36:20.327Z,15.60
2023-04-02T19:38:52.927Z,11.10
2023-04-02T19:41:43.594Z,10.60
2023-04-02T19:44:11.833Z,11.70
2023-04-02T19:46:39.081Z,15.20
2023-04-02T19:49:09.441Z,15.70
2023-04-02T19:51:35.631Z,14.30
2023-04-02T19:54:02.272Z,16.00
2023-04-02T19:56:28.959Z,14.60
2023-04-02T19:58:56.752Z,16.00
2023-04-02T20:01:24.345Z,17.20
2023-04-02T20:03:50.947Z,11.10
2023-04-02T20:06:20.724Z,12.00
2023-04-02T20:08:47.845Z,14.10
2023-04-02T20:11:14.052Z,14.80
2023-04-02T20:13:43.237Z,15.00
2023-04-02T20:16:10.800Z,14.00
2023-04-02T20:18:36.931Z,14.90
2023-04-02T20:21:09.446Z,14.10
2023-04-02T20:23:35.889Z,16.30
2023-04-02T20:26:02.949Z,13.90
2023-04-02T20:28:32.431Z,12.40
2023-04-02T20:31:25.298Z,11.40
2023-04-02T20:33:55.910Z,14.50
2023-04-02T20:36:23.993Z,13.20
2023-04-02T20:38:53.506Z,15.30
2023-04-02T20:41:20.860Z,12.40
2023-04-02T20:43:47.129Z,14.40
2023-04-02T20:46:14.083Z,13.90
2023-04-02T20:48:40.384Z,15.90
2023-04-02T20:51:08.121Z,15.50
2023-04-02T20:53:35.247Z,10.20
2023-04-02T20:56:11.672Z,12.50
2023-04-02T20:58:40.378Z,10.70
2023-04-02T21:01:20.470Z,11.80
2023-04-02T21:03:48.515Z,14.00
2023-04-02T21:06:19.305Z,15.50
2023-04-02T21:08:45.643Z,12.20
2023-04-02T21:11:16.042Z,10.40
2023-04-02T21:13:44.514Z,15.40
2023-04-02T21:16:15.823Z,13.90
2023-04-02T21:18:43.045Z,10.80
2023-04-02T21:21:12.926Z,10.40
2023-04-02T21:23:39.845Z,10.60
2023-04-02T21:26:06.604Z,11.10
2023-04-02T21:36:26.530Z,17.60
2023-04-02T21:38:55.825Z,14.90
2023-04-02T21:41:33.141Z,13.70
2023-04-02T21:44:01.089Z,11.40
2023-04-02T21:46:30.586Z,10.80
2023-04-02T21:48:58.982Z,9.90
2023-04-02T21:51:31.625Z,10.60
2023-04-02T21:53:59.233Z,12.40
2023-04-02T21:56:31.185Z,12.10
2023-04-02T21:58:58.666Z,13.70
2023-04-02T22:01:28.141Z,10.80
2023-04-02T22:03:57.138Z,10.80
2023-04-02T22:06:25.502Z,10.50
2023-04-02T22:08:57.204Z,10.40
2023-04-02T22:11:26.636Z,7.60
2023-04-02T22:13:54.147Z,8.50
2023-04-02T22:16:25.421Z,9.00
2023-04-02T22:18:53.558Z,10.40
2023-04-02T22:21:20.501Z,10.00
2023-04-02T22:23:51.821Z,8.70
2023-04-02T22:26:19.730Z,11.90
2023-04-02T22:28:46.760Z,10.30
2023-04-02T22:31:15.719Z,11.00
2023-04-02T22:33:43.480Z,10.30
2023-04-02T22:36:11.046Z,8.50
2023-04-02T22:38:41.004Z,7.90
2023-04-02T22:41:08.495Z,8.40
2023-04-02T22:43:36.303Z,10.00
2023-04-02T22:46:07.052Z,9.80
2023-04-02T22:48:34.829Z,11.10
2023-04-02T22:51:02.334Z,9.70
2023-04-02T22:53:30.638Z,8.20
2023-04-02T22:56:24.866Z,8.60
2023-04-02T22:58:51.796Z,8.90
2023-04-02T23:01:23.943Z,6.00
2023-04-02T23:03:53.249Z,8.20
2023-04-02T23:06:20.939Z,10.60
2023-04-02T23:08:47.933Z,9.00
2023-04-02T23:11:19.477Z,8.50
2023-04-02T23:13:49.943Z,9.60
2023-04-02T23:16:16.997Z,9.00
2023-04-02T23:18:48.088Z,9.30
2023-04-02T23:21:16.433Z,7.90
2023-04-02T23:23:43.241Z,9.40
2023-04-02T23:26:15.617Z,7.90
2023-04-02T23:28:42.437Z,8.40
2023-04-02T23:31:12.397Z,8.10
2023-04-02T23:33:39.790Z,7.90
2023-04-02T23:36:12.039Z,10.70
2023-04-02T23:38:40.489Z,10.20
2023-04-02T23:41:07.781Z,8.00
2023-04-02T23:43:34.550Z,8.80
2023-04-02T23:46:01.630Z,9.40
2023-04-02T23:48:28.731Z,9.10
2023-04-02T23:50:55.465Z,7.10
2023-04-02T23:53:23.272Z,6.60
2023-04-02T23:55:55.713Z,9.80
2023-04-02T23:58:25.102Z,9.70
